Time;durP1;ratioP1;P1;durP2;ratioP2;P2;SDS_P1;SDS_P2;PMS_P1;PMS_P2;Temp;Humidity;BMP_temperature;BMP_pressure;BME280_temperature;BME280_humidity;BME280_pressure;Samples;Min_cycle;Max_cycle;Signal;HPM_P1;HPM_P2
2022/05/27 00:01:28;;;;;;;25.88;8.63;;;;;;;;;;5015179;28;20046;-73
2022/05/27 00:03:55;;;;;;;27.38;8.43;;;;;;;;;;5011653;28;20053;-73
2022/05/27 00:06:22;;;;;;;25.48;7.53;;;;;;;;;;5002291;28;20092;-74
2022/05/27 00:08:48;;;;;;;22.40;7.13;;;;;;;;;;4997901;28;20034;-74
2022/05/27 00:11:14;;;;;;;21.63;6.82;;;;;;;;;;4980194;28;20030;-74
2022/05/27 00:13:41;;;;;;;18.92;7.95;;;;;;;;;;4998663;28;20030;-74
2022/05/27 00:16:07;;;;;;;26.65;9.07;;;;;;;;;;4998816;28;20027;-74
2022/05/27 00:18:33;;;;;;;24.88;7.13;;;;;;;;;;4998489;28;20093;-74
2022/05/27 00:20:59;;;;;;;17.40;6.13;;;;;;;;;;5003995;28;20027;-73
2022/05/27 00:23:26;;;;;;;32.30;7.50;;;;;;;;;;5007141;28;20033;-74
2022/05/27 00:25:52;;;;;;;25.33;6.30;;;;;;;;;;5010405;28;20010;-73
2022/05/27 00:28:18;;;;;;;28.15;6.13;;;;;;;;;;5010662;28;20074;-72
2022/05/27 00:30:44;;;;;;;32.42;6.25;;;;;;;;;;4996554;28;20030;-73
2022/05/27 00:33:10;;;;;;;27.95;6.07;;;;;;;;;;4996416;28;20031;-72
2022/05/27 00:35:36;;;;;;;27.98;5.95;;;;;;;;;;4996341;28;20046;-72
2022/05/27 00:38:02;;;;;;;23.50;5.20;;;;;;;;;;4996195;28;20022;-73
2022/05/27 00:40:34;;;;;;;31.40;5.78;;;;;;;;;;4997314;28;20442;-72
2022/05/27 00:43:00;;;;;;;23.85;5.90;;;;;;;;;;4995799;28;20146;-73
2022/05/27 00:45:27;;;;;;;27.10;4.82;;;;;;;;;;4995693;28;20102;-73
2022/05/27 00:47:54;;;;;;;36.72;5.32;;;;;;;;;;4995983;28;20018;-74
2022/05/27 00:50:21;;;;;;;35.75;5.75;;;;;;;;;;4996129;28;20176;-73
2022/05/27 00:52:48;;;;;;;20.42;3.90;;;;;;;;;;4995732;28;20392;-73
2022/05/27 00:55:17;;;;;;;27.38;4.80;;;;;;;;;;4995675;28;20077;-73
2022/05/27 00:57:45;;;;;;;28.35;4.70;;;;;;;;;;4996088;28;20041;-73
2022/05/27 01:00:13;;;;;;;33.45;5.15;;;;;;;;;;4995836;28;20403;-73
2022/05/27 01:02:39;;;;;;;35.28;5.20;;;;;;;;;;4995646;28;20096;-74
2022/05/27 01:05:07;;;;;;;28.90;4.85;;;;;;;;;;4995673;28;20026;-73
2022/05/27 01:07:33;;;;;;;30.05;4.50;;;;;;;;;;4995029;28;20026;-73
2022/05/27 01:10:01;;;;;;;30.88;4.60;;;;;;;;;;4995723;28;20443;-74
2022/05/27 01:12:33;;;;;;;35.80;4.85;;;;;;;;;;4995354;28;20471;-74
2022/05/27 01:15:17;;;;;;;32.80;4.10;;;;;;;;;;4995532;28;20034;-73
2022/05/27 01:18:04;;;;;;;38.13;4.85;;;;;;;;;;4995922;28;20084;-73
2022/05/27 01:20:45;;;;;;;32.70;5.07;;;;;;;;;;4946560;28;20031;-74
2022/05/27 01:23:17;;;;;;;23.88;4.57;;;;;;;;;;4995152;28;20114;-74
2022/05/27 01:25:46;;;;;;;28.00;4.82;;;;;;;;;;4995151;28;20062;-74
2022/05/27 01:28:18;;;;;;;32.47;4.45;;;;;;;;;;4977921;28;20034;-74
2022/05/27 01:30:46;;;;;;;34.45;4.82;;;;;;;;;;4981573;28;20034;-74
2022/05/27 01:33:18;;;;;;;32.33;5.13;;;;;;;;;;5003614;28;20086;-74
2022/05/27 01:35:47;;;;;;;38.70;5.00;;;;;;;;;;4999973;28;20030;-73
2022/05/27 01:38:15;;;;;;;32.17;3.95;;;;;;;;;;4997927;28;20027;-73
2022/05/27 01:40:56;;;;;;;33.90;4.57;;;;;;;;;;4994936;28;20045;-73
2022/05/27 01:43:25;;;;;;;33.28;4.45;;;;;;;;;;4994845;28;20097;-74
2022/05/27 01:46:05;;;;;;;28.48;4.30;;;;;;;;;;4994466;28;20052;-74
2022/05/27 01:48:35;;;;;;;30.10;4.95;;;;;;;;;;4993622;28;20023;-74
2022/05/27 01:51:09;;;;;;;24.20;4.28;;;;;;;;;;4994752;28;20054;-73
2022/05/27 01:53:45;;;;;;;34.50;4.95;;;;;;;;;;4994372;28;20041;-73
2022/05/27 01:56:24;;;;;;;33.38;4.65;;;;;;;;;;4994600;28;20026;-73
2022/05/27 01:58:53;;;;;;;37.33;4.85;;;;;;;;;;4996436;28;20026;-74
2022/05/27 02:01:22;;;;;;;31.05;4.90;;;;;;;;;;4997428;28;20335;-74
2022/05/27 02:03:52;;;;;;;28.23;4.35;;;;;;;;;;4995038;28;20161;-73
2022/05/27 02:06:21;;;;;;;30.17;4.63;;;;;;;;;;4994653;28;20030;-73
2022/05/27 02:08:53;;;;;;;31.35;4.10;;;;;;;;;;4992894;28;20022;-73
2022/05/27 02:11:20;;;;;;;29.52;4.30;;;;;;;;;;4994395;28;20037;-72
2022/05/27 02:14:04;;;;;;;36.67;4.78;;;;;;;;;;4994387;28;20531;-73
2022/05/27 02:16:33;;;;;;;30.13;4.18;;;;;;;;;;4976615;28;20037;-73
2022/05/27 02:19:13;;;;;;;36.60;4.63;;;;;;;;;;4994341;28;20058;-73
2022/05/27 02:22:00;;;;;;;30.92;4.43;;;;;;;;;;4996359;28;20034;-73
2022/05/27 02:24:36;;;;;;;28.02;3.92;;;;;;;;;;5027903;23;20047;-70
2022/05/27 02:27:04;;;;;;;31.50;4.97;;;;;;;;;;5003781;28;20041;-71
2022/05/27 02:29:30;;;;;;;29.60;4.40;;;;;;;;;;5004394;28;20033;-72
2022/05/27 02:32:00;;;;;;;28.60;4.25;;;;;;;;;;4998318;28;20120;-71
2022/05/27 02:37:20;;;;;;;36.05;4.57;;;;;;;;;;4993208;28;20084;-70
2022/05/27 02:39:46;;;;;;;33.70;4.55;;;;;;;;;;4975920;28;20038;-70
2022/05/27 02:42:24;;;;;;;24.67;3.92;;;;;;;;;;4993230;28;20023;-70
2022/05/27 02:45:08;;;;;;;24.33;4.15;;;;;;;;;;4993699;28;20022;-71
2022/05/27 02:47:46;;;;;;;33.33;4.72;;;;;;;;;;4975211;28;20026;-71
2022/05/27 02:50:15;;;;;;;32.63;4.53;;;;;;;;;;4993281;28;20064;-71
2022/05/27 02:53:02;;;;;;;32.33;4.43;;;;;;;;;;4993178;28;20034;-71
2022/05/27 02:55:31;;;;;;;30.13;4.45;;;;;;;;;;4992829;28;20490;-71
2022/05/27 02:58:01;;;;;;;30.00;4.20;;;;;;;;;;4976790;28;20026;-72
2022/05/27 03:00:28;;;;;;;30.35;4.20;;;;;;;;;;4993877;28;20019;-72
2022/05/27 03:02:59;;;;;;;25.90;3.90;;;;;;;;;;4993636;28;20164;-72
2022/05/27 03:05:27;;;;;;;32.70;4.80;;;;;;;;;;4993434;28;20058;-71
2022/05/27 03:08:03;;;;;;;29.02;4.05;;;;;;;;;;4993468;28;20101;-71
2022/05/27 03:10:37;;;;;;;21.58;3.08;;;;;;;;;;4976166;28;20037;-72
2022/05/27 03:13:06;;;;;;;22.40;3.63;;;;;;;;;;4993512;28;20097;-71
2022/05/27 03:15:51;;;;;;;25.52;3.80;;;;;;;;;;4993116;28;20119;-70
2022/05/27 03:18:19;;;;;;;26.35;4.03;;;;;;;;;;4993885;28;20092;-71
2022/05/27 03:21:05;;;;;;;22.40;3.85;;;;;;;;;;4993575;28;20415;-71
2022/05/27 03:23:33;;;;;;;17.58;3.05;;;;;;;;;;4995435;28;20033;-72
2022/05/27 03:26:03;;;;;;;31.45;4.05;;;;;;;;;;5007845;28;20114;-72
2022/05/27 03:28:39;;;;;;;26.08;3.25;;;;;;;;;;5012816;28;20117;-72
2022/05/27 03:31:04;;;;;;;30.70;4.10;;;;;;;;;;5014537;28;20026;-75
2022/05/27 03:33:30;;;;;;;31.60;4.50;;;;;;;;;;5009523;28;20100;-72
2022/05/27 03:36:02;;;;;;;26.23;4.22;;;;;;;;;;4996554;28;20539;-72
2022/05/27 03:38:33;;;;;;;23.65;3.70;;;;;;;;;;4994243;28;20022;-71
2022/05/27 03:41:04;;;;;;;25.80;3.95;;;;;;;;;;4993514;28;20487;-72
2022/05/27 03:43:32;;;;;;;28.42;4.18;;;;;;;;;;4993525;28;20029;-73
2022/05/27 03:45:59;;;;;;;36.47;4.10;;;;;;;;;;4995919;28;20034;-73
2022/05/27 03:48:26;;;;;;;28.25;3.67;;;;;;;;;;4976284;28;20376;-72
2022/05/27 03:50:53;;;;;;;24.80;3.53;;;;;;;;;;4993125;28;20634;-71
2022/05/27 03:53:20;;;;;;;26.98;3.95;;;;;;;;;;4992953;28;20031;-71
2022/05/27 03:55:46;;;;;;;23.48;4.03;;;;;;;;;;4993624;28;20395;-71
2022/05/27 03:58:13;;;;;;;32.95;3.85;;;;;;;;;;4993200;28;20030;-71
2022/05/27 04:00:39;;;;;;;30.85;4.13;;;;;;;;;;4992905;28;20046;-73
2022/05/27 04:03:05;;;;;;;23.70;3.47;;;;;;;;;;4992990;28;20072;-73
2022/05/27 04:05:31;;;;;;;20.13;3.33;;;;;;;;;;4992795;28;20037;-73
2022/05/27 04:07:57;;;;;;;27.27;3.78;;;;;;;;;;4992977;28;20361;-73
2022/05/27 04:10:23;;;;;;;29.20;3.80;;;;;;;;;;4993042;28;20034;-72
2022/05/27 04:12:49;;;;;;;23.20;3.42;;;;;;;;;;4995792;28;20030;-73
2022/05/27 04:15:15;;;;;;;28.48;3.83;;;;;;;;;;5000799;28;20050;-73
2022/05/27 04:17:42;;;;;;;32.10;3.95;;;;;;;;;;5002357;28;20118;-74
2022/05/27 04:20:12;;;;;;;20.15;3.10;;;;;;;;;;5004042;28;20018;-72
2022/05/27 04:22:39;;;;;;;27.83;3.80;;;;;;;;;;5003808;28;20034;-72
2022/05/27 04:25:05;;;;;;;19.63;3.38;;;;;;;;;;5002246;28;20030;-72
2022/05/27 04:27:32;;;;;;;22.27;3.55;;;;;;;;;;4997054;28;20038;-73
2022/05/27 04:29:58;;;;;;;28.30;4.43;;;;;;;;;;4996576;28;20562;-73
2022/05/27 04:32:25;;;;;;;27.48;3.83;;;;;;;;;;4995949;28;20062;-73
2022/05/27 04:34:52;;;;;;;31.35;4.57;;;;;;;;;;4995900;28;20057;-72
2022/05/27 04:37:18;;;;;;;33.00;4.35;;;;;;;;;;4995724;28;20491;-72
2022/05/27 04:39:44;;;;;;;44.47;4.32;;;;;;;;;;4996188;28;20038;-71
2022/05/27 04:42:10;;;;;;;26.70;4.03;;;;;;;;;;4995876;28;20034;-72
2022/05/27 04:44:37;;;;;;;31.23;3.67;;;;;;;;;;4996550;28;20023;-71
2022/05/27 04:47:03;;;;;;;26.85;3.67;;;;;;;;;;4995091;28;20110;-71
2022/05/27 04:52:13;;;;;;;27.25;3.25;;;;;;;;;;4995303;28;20081;-72
2022/05/27 04:54:40;;;;;;;27.27;3.25;;;;;;;;;;4996286;28;20034;-72
2022/05/27 04:57:06;;;;;;;28.30;4.15;;;;;;;;;;4996452;28;20030;-72
2022/05/27 04:59:36;;;;;;;21.02;3.67;;;;;;;;;;4995928;28;20348;-73
2022/05/27 05:02:02;;;;;;;19.33;3.08;;;;;;;;;;4978546;28;20030;-72
2022/05/27 05:04:28;;;;;;;25.40;2.95;;;;;;;;;;4996094;28;20026;-73
2022/05/27 05:06:55;;;;;;;21.08;2.90;;;;;;;;;;4995860;28;20041;-72
2022/05/27 05:09:21;;;;;;;20.70;3.20;;;;;;;;;;4978548;28;20038;-72
2022/05/27 05:11:47;;;;;;;25.52;3.10;;;;;;;;;;4996284;28;20026;-72
2022/05/27 05:14:13;;;;;;;22.30;3.28;;;;;;;;;;4996471;28;20113;-72
2022/05/27 05:16:39;;;;;;;23.40;3.30;;;;;;;;;;4996005;28;20034;-72
2022/05/27 05:19:05;;;;;;;31.40;4.00;;;;;;;;;;4996047;28;20026;-72
2022/05/27 05:21:31;;;;;;;25.33;3.25;;;;;;;;;;4996820;28;20035;-73
2022/05/27 05:23:57;;;;;;;16.63;2.72;;;;;;;;;;4995822;28;20430;-73
2022/05/27 05:26:23;;;;;;;20.77;3.25;;;;;;;;;;4997882;28;20039;-74
2022/05/27 05:28:49;;;;;;;20.10;3.45;;;;;;;;;;4998565;28;20030;-73
2022/05/27 05:31:16;;;;;;;25.90;3.63;;;;;;;;;;4984343;28;20030;-72
2022/05/27 05:33:43;;;;;;;15.30;2.97;;;;;;;;;;5001409;28;20026;-70
2022/05/27 05:36:09;;;;;;;25.67;3.25;;;;;;;;;;4997998;28;20611;-74
2022/05/27 05:38:35;;;;;;;25.20;3.47;;;;;;;;;;4999391;28;20101;-74
2022/05/27 05:41:01;;;;;;;17.73;2.90;;;;;;;;;;5002795;28;20090;-73
2022/05/27 05:43:26;;;;;;;29.08;4.10;;;;;;;;;;4987096;28;20023;-78
2022/05/27 05:45:52;;;;;;;27.55;3.70;;;;;;;;;;4983787;28;20499;-72
2022/05/27 05:48:18;;;;;;;15.95;2.90;;;;;;;;;;4999851;28;20034;-73
2022/05/27 05:50:44;;;;;;;21.88;3.00;;;;;;;;;;4997806;28;20041;-72
2022/05/27 05:53:10;;;;;;;25.35;3.55;;;;;;;;;;4977499;28;20038;-73
2022/05/27 05:55:37;;;;;;;22.13;3.33;;;;;;;;;;4994898;28;20022;-72
2022/05/27 05:58:03;;;;;;;24.95;4.13;;;;;;;;;;4994796;28;20030;-70
2022/05/27 06:00:29;;;;;;;28.00;4.03;;;;;;;;;;4994886;28;20031;-75
2022/05/27 06:02:55;;;;;;;26.88;3.45;;;;;;;;;;4994437;28;20045;-71
2022/05/27 06:05:22;;;;;;;24.63;3.22;;;;;;;;;;4993888;28;20063;-73
2022/05/27 06:07:49;;;;;;;36.80;5.28;;;;;;;;;;4994989;28;20038;-74
2022/05/27 06:10:16;;;;;;;20.85;3.22;;;;;;;;;;4994640;28;20023;-75
2022/05/27 06:12:42;;;;;;;22.90;3.55;;;;;;;;;;4994554;28;20096;-72
2022/05/27 06:15:10;;;;;;;29.13;4.22;;;;;;;;;;4994114;28;20030;-72
2022/05/27 06:17:36;;;;;;;22.60;3.67;;;;;;;;;;4993721;28;20109;-71
2022/05/27 06:20:03;;;;;;;26.35;3.72;;;;;;;;;;4994325;28;20038;-72
2022/05/27 06:22:29;;;;;;;30.92;4.32;;;;;;;;;;4994272;28;20023;-73
2022/05/27 06:24:55;;;;;;;26.70;3.97;;;;;;;;;;4993019;28;20030;-73
2022/05/27 06:27:21;;;;;;;32.63;4.20;;;;;;;;;;4993179;28;20037;-71
2022/05/27 06:35:16;;;;;;;29.35;3.97;;;;;;;;;;4993123;28;20542;-72
2022/05/27 06:37:42;;;;;;;33.97;4.28;;;;;;;;;;4993501;28;20078;-72
2022/05/27 06:40:08;;;;;;;27.08;3.85;;;;;;;;;;4993785;28;20080;-72
2022/05/27 06:42:36;;;;;;;35.40;4.38;;;;;;;;;;4993998;28;20040;-71
2022/05/27 06:45:02;;;;;;;21.23;3.78;;;;;;;;;;4977917;28;20030;-72
2022/05/27 06:47:28;;;;;;;23.65;4.03;;;;;;;;;;4995330;28;20030;-72
2022/05/27 06:49:54;;;;;;;27.42;3.92;;;;;;;;;;4994642;28;20030;-73
2022/05/27 06:52:20;;;;;;;21.73;3.80;;;;;;;;;;4994761;28;20031;-73
2022/05/27 06:54:46;;;;;;;29.88;4.00;;;;;;;;;;4995111;28;20026;-71
2022/05/27 06:57:13;;;;;;;30.10;4.13;;;;;;;;;;4994610;28;20034;-75
2022/05/27 06:59:39;;;;;;;24.98;3.55;;;;;;;;;;4997226;28;20030;-73
2022/05/27 07:02:05;;;;;;;26.50;4.15;;;;;;;;;;4996667;28;20075;-71
2022/05/27 07:04:31;;;;;;;24.77;3.20;;;;;;;;;;4999309;28;20078;-71
2022/05/27 07:06:57;;;;;;;20.42;3.88;;;;;;;;;;5004841;28;20034;-72
2022/05/27 07:09:24;;;;;;;24.95;4.00;;;;;;;;;;5005248;28;20026;-70
2022/05/27 07:11:51;;;;;;;24.25;3.75;;;;;;;;;;5004457;28;20027;-72
2022/05/27 07:14:17;;;;;;;31.58;4.15;;;;;;;;;;5005655;28;20042;-72
2022/05/27 07:16:44;;;;;;;24.65;3.65;;;;;;;;;;5007920;28;20034;-73
2022/05/27 07:19:10;;;;;;;27.65;3.92;;;;;;;;;;5008234;28;20084;-72
2022/05/27 07:21:40;;;;;;;27.27;3.72;;;;;;;;;;4995268;28;20460;-72
2022/05/27 07:24:09;;;;;;;22.83;3.85;;;;;;;;;;4993937;28;20081;-72
2022/05/27 07:26:35;;;;;;;28.02;4.03;;;;;;;;;;4994525;28;20065;-72
2022/05/27 07:29:01;;;;;;;25.65;4.25;;;;;;;;;;4993968;28;20037;-72
2022/05/27 07:31:27;;;;;;;21.60;3.42;;;;;;;;;;4992980;28;20034;-72
2022/05/27 07:33:53;;;;;;;22.83;3.55;;;;;;;;;;4993503;28;20031;-73
2022/05/27 07:36:19;;;;;;;15.90;3.47;;;;;;;;;;4994066;28;20062;-73
2022/05/27 07:38:45;;;;;;;19.05;3.30;;;;;;;;;;4994315;28;20346;-72
2022/05/27 07:41:12;;;;;;;17.40;3.90;;;;;;;;;;4993479;28;20061;-73
2022/05/27 07:43:38;;;;;;;15.52;3.47;;;;;;;;;;4993044;28;20029;-72
2022/05/27 07:46:04;;;;;;;22.90;3.22;;;;;;;;;;4993841;28;20431;-72
2022/05/27 07:48:30;;;;;;;17.92;3.20;;;;;;;;;;4998381;28;20089;-72
2022/05/27 07:50:56;;;;;;;20.13;3.20;;;;;;;;;;4996806;28;20071;-72
2022/05/27 07:53:22;;;;;;;15.23;3.17;;;;;;;;;;4996714;28;20034;-73
2022/05/27 07:55:48;;;;;;;15.80;3.00;;;;;;;;;;4979779;28;20033;-74
2022/05/27 07:58:14;;;;;;;16.98;3.72;;;;;;;;;;4998861;28;20026;-74
2022/05/27 08:00:40;;;;;;;14.13;3.10;;;;;;;;;;4998637;28;20034;-74
2022/05/27 08:03:07;;;;;;;20.55;3.30;;;;;;;;;;4997460;28;20459;-74
2022/05/27 08:05:33;;;;;;;13.27;2.38;;;;;;;;;;4996251;28;20565;-72
2022/05/27 08:08:00;;;;;;;22.70;3.58;;;;;;;;;;4996611;28;20074;-73
2022/05/27 08:10:30;;;;;;;18.17;3.67;;;;;;;;;;4996394;28;20102;-72
2022/05/27 08:12:57;;;;;;;12.82;2.75;;;;;;;;;;4996815;28;20027;-73
2022/05/27 08:15:23;;;;;;;16.15;3.05;;;;;;;;;;4979080;28;20049;-73
2022/05/27 08:17:49;;;;;;;21.83;3.50;;;;;;;;;;4996242;28;20475;-73
2022/05/27 08:20:18;;;;;;;13.95;2.92;;;;;;;;;;4981723;28;20022;-72
2022/05/27 08:22:44;;;;;;;19.58;3.60;;;;;;;;;;4996306;28;20383;-72
2022/05/27 08:25:10;;;;;;;12.75;2.92;;;;;;;;;;4996752;28;20030;-71
2022/05/27 08:27:36;;;;;;;18.55;3.55;;;;;;;;;;4996415;28;20129;-72
2022/05/27 08:30:03;;;;;;;14.32;3.30;;;;;;;;;;4996340;28;20503;-72
2022/05/27 08:32:31;;;;;;;15.57;2.60;;;;;;;;;;4996550;28;20038;-71
2022/05/27 08:40:45;;;;;;;20.70;3.13;;;;;;;;;;4997189;28;20392;-72
2022/05/27 08:43:23;;;;;;;22.38;3.35;;;;;;;;;;5000706;28;20035;-72
2022/05/27 08:45:56;;;;;;;17.83;3.40;;;;;;;;;;4996295;28;20030;-72
2022/05/27 08:48:23;;;;;;;20.48;3.13;;;;;;;;;;4981817;28;20086;-72
2022/05/27 08:50:51;;;;;;;21.33;3.60;;;;;;;;;;4980788;28;20042;-72
2022/05/27 08:53:37;;;;;;;16.75;3.50;;;;;;;;;;5000701;28;20057;-73
2022/05/27 09:01:41;;;;;;;19.95;2.83;;;;;;;;;;4999350;28;20057;-72
2022/05/27 09:04:11;;;;;;;19.60;3.25;;;;;;;;;;4997542;28;20038;-73
2022/05/27 09:06:44;;;;;;;17.20;2.90;;;;;;;;;;4997520;28;20446;-71
2022/05/27 09:09:15;;;;;;;17.88;2.97;;;;;;;;;;4982469;28;20033;-72
2022/05/27 09:12:00;;;;;;;22.90;3.38;;;;;;;;;;5004585;28;20057;-74
2022/05/27 09:14:27;;;;;;;16.05;3.40;;;;;;;;;;5003642;28;20027;-74
2022/05/27 09:16:56;;;;;;;17.67;3.17;;;;;;;;;;4994420;28;20026;-73
2022/05/27 09:19:22;;;;;;;14.70;2.97;;;;;;;;;;4980943;28;20125;-73
2022/05/27 09:22:00;;;;;;;27.42;4.88;;;;;;;;;;4994948;28;20018;-71
2022/05/27 09:24:33;;;;;;;21.15;3.60;;;;;;;;;;4997221;28;20112;-72
2022/05/27 09:27:18;;;;;;;20.35;3.35;;;;;;;;;;4995330;28;20054;-72
2022/05/27 09:29:59;;;;;;;19.30;3.97;;;;;;;;;;4995284;28;20026;-71
2022/05/27 09:32:32;;;;;;;17.92;3.63;;;;;;;;;;4995027;28;20383;-71
2022/05/27 09:35:01;;;;;;;21.90;4.00;;;;;;;;;;4995122;28;20026;-71
2022/05/27 09:37:43;;;;;;;24.73;3.95;;;;;;;;;;4994701;28;20173;-70
2022/05/27 09:40:38;;;;;;;24.85;4.35;;;;;;;;;;4995505;28;20028;-72
2022/05/27 09:43:15;;;;;;;19.42;4.10;;;;;;;;;;4975023;28;20034;-72
2022/05/27 09:45:43;;;;;;;23.27;4.15;;;;;;;;;;5004822;28;20090;-71
2022/05/27 09:48:10;;;;;;;22.52;3.97;;;;;;;;;;5001094;28;20098;-72
2022/05/27 09:50:40;;;;;;;31.58;4.63;;;;;;;;;;4997102;28;20033;-71
2022/05/27 09:53:07;;;;;;;23.88;4.68;;;;;;;;;;5001952;28;20115;-72
2022/05/27 09:55:44;;;;;;;22.83;4.07;;;;;;;;;;5001023;28;20029;-72
2022/05/27 09:58:10;;;;;;;27.73;5.10;;;;;;;;;;4984346;28;20066;-72
2022/05/27 10:00:46;;;;;;;30.10;4.95;;;;;;;;;;4999328;28;20022;-73
2022/05/27 10:03:22;;;;;;;26.00;4.50;;;;;;;;;;4997803;28;20023;-73
2022/05/27 10:05:52;;;;;;;29.88;4.97;;;;;;;;;;4995328;28;20365;-72
2022/05/27 10:08:29;;;;;;;26.40;4.35;;;;;;;;;;4993871;28;20084;-73
2022/05/27 10:11:27;;;;;;;19.65;3.97;;;;;;;;;;4993857;28;20451;-73
2022/05/27 10:14:12;;;;;;;23.70;4.50;;;;;;;;;;4940095;28;20105;-72
2022/05/27 10:16:39;;;;;;;21.70;4.32;;;;;;;;;;4993964;28;20041;-71
2022/05/27 10:19:08;;;;;;;27.52;4.22;;;;;;;;;;4994038;28;20027;-70
2022/05/27 10:21:48;;;;;;;22.33;4.75;;;;;;;;;;4993739;28;20558;-72
2022/05/27 10:24:18;;;;;;;27.13;4.45;;;;;;;;;;4993536;28;20475;-72
2022/05/27 10:26:45;;;;;;;30.02;3.90;;;;;;;;;;4993524;28;20360;-72
2022/05/27 10:29:15;;;;;;;22.95;3.95;;;;;;;;;;4994616;28;20044;-73
2022/05/27 10:31:53;;;;;;;28.27;4.40;;;;;;;;;;4994095;28;20387;-72
2022/05/27 10:34:37;;;;;;;23.90;4.28;;;;;;;;;;4995043;28;20027;-71
2022/05/27 10:37:08;;;;;;;25.38;3.85;;;;;;;;;;4993547;28;20395;-71
2022/05/27 10:39:37;;;;;;;28.50;5.45;;;;;;;;;;4993669;28;20438;-72
2022/05/27 10:42:09;;;;;;;33.10;4.88;;;;;;;;;;4993574;28;20112;-72
2022/05/27 10:44:41;;;;;;;29.02;4.18;;;;;;;;;;4993370;28;20030;-72
2022/05/27 10:47:14;;;;;;;30.73;5.03;;;;;;;;;;4993401;28;20027;-72
2022/05/27 10:49:50;;;;;;;22.40;3.53;;;;;;;;;;4993435;28;20387;-72
2022/05/27 10:52:40;;;;;;;28.35;4.68;;;;;;;;;;4993548;28;20026;-72
2022/05/27 10:55:21;;;;;;;26.55;4.63;;;;;;;;;;4993583;28;20029;-72
2022/05/27 11:03:53;;;;;;;27.60;4.93;;;;;;;;;;4995149;28;20084;-71
2022/05/27 11:06:35;;;;;;;31.48;4.65;;;;;;;;;;4994190;28;20395;-72
2022/05/27 11:09:20;;;;;;;29.75;4.90;;;;;;;;;;4993285;28;20522;-71
2022/05/27 11:11:50;;;;;;;26.08;4.57;;;;;;;;;;4993526;28;20030;-73
2022/05/27 11:17:23;;;;;;;40.50;5.40;;;;;;;;;;4993984;28;20058;-71
2022/05/27 11:20:07;;;;;;;24.08;4.57;;;;;;;;;;4993396;28;20049;-73
2022/05/27 11:22:38;;;;;;;32.83;5.03;;;;;;;;;;5000135;28;20460;-71
2022/05/27 11:25:04;;;;;;;21.38;4.53;;;;;;;;;;4999453;28;20038;-72
2022/05/27 11:27:49;;;;;;;25.48;3.85;;;;;;;;;;4998817;28;20041;-72
2022/05/27 11:30:21;;;;;;;26.88;4.72;;;;;;;;;;4982085;28;20026;-72
2022/05/27 11:32:47;;;;;;;26.08;4.60;;;;;;;;;;5000232;28;20446;-72
2022/05/27 11:35:24;;;;;;;30.45;6.38;;;;;;;;;;4999514;28;20054;-73
2022/05/27 11:37:55;;;;;;;26.10;5.43;;;;;;;;;;4999340;28;20026;-73
2022/05/27 11:40:29;;;;;;;32.78;5.85;;;;;;;;;;4999688;28;20033;-73
2022/05/27 11:42:59;;;;;;;25.27;4.65;;;;;;;;;;5000388;28;20045;-73
2022/05/27 11:45:27;;;;;;;33.05;6.03;;;;;;;;;;4999089;28;20019;-73
2022/05/27 11:47:58;;;;;;;36.60;5.38;;;;;;;;;;4981852;28;20033;-71
2022/05/27 11:50:32;;;;;;;34.33;4.68;;;;;;;;;;4999679;28;20081;-73
2022/05/27 11:52:58;;;;;;;28.98;5.70;;;;;;;;;;4999418;28;20052;-72
2022/05/27 11:55:36;;;;;;;30.45;5.07;;;;;;;;;;4998594;28;20554;-74
2022/05/27 11:58:14;;;;;;;28.50;4.82;;;;;;;;;;4998786;28;20036;-73
2022/05/27 12:00:42;;;;;;;26.88;4.30;;;;;;;;;;4999700;28;20114;-72
2022/05/27 12:03:14;;;;;;;23.48;4.53;;;;;;;;;;4999207;28;20388;-72
2022/05/27 12:05:51;;;;;;;30.73;4.63;;;;;;;;;;4998907;28;20026;-73
2022/05/27 12:08:20;;;;;;;21.30;4.05;;;;;;;;;;4999748;28;20089;-72
2022/05/27 12:10:47;;;;;;;16.63;3.42;;;;;;;;;;4998932;28;20018;-72
2022/05/27 12:13:16;;;;;;;22.52;4.30;;;;;;;;;;4998910;28;20026;-73
2022/05/27 12:15:48;;;;;;;21.88;3.58;;;;;;;;;;4999703;28;20023;-73
2022/05/27 12:18:20;;;;;;;18.50;4.10;;;;;;;;;;5001930;28;20031;-72
2022/05/27 12:20:46;;;;;;;22.02;3.97;;;;;;;;;;4983128;28;20474;-72
2022/05/27 12:23:13;;;;;;;15.82;3.63;;;;;;;;;;4998704;28;20026;-71
2022/05/27 12:25:42;;;;;;;16.67;3.33;;;;;;;;;;4998224;28;20074;-72
2022/05/27 12:28:08;;;;;;;28.08;3.85;;;;;;;;;;5000628;28;20484;-73
2022/05/27 12:30:39;;;;;;;13.98;3.38;;;;;;;;;;5000309;28;20117;-73
2022/05/27 12:33:06;;;;;;;22.23;3.70;;;;;;;;;;4995303;28;20558;-72
2022/05/27 12:35:32;;;;;;;28.42;3.65;;;;;;;;;;4995599;28;20041;-73
2022/05/27 12:38:00;;;;;;;18.30;2.97;;;;;;;;;;4996213;28;20030;-72
2022/05/27 12:40:29;;;;;;;18.58;3.35;;;;;;;;;;4998104;28;20394;-71
2022/05/27 12:42:56;;;;;;;13.40;2.88;;;;;;;;;;4998173;28;20083;-73
2022/05/27 12:45:43;;;;;;;18.67;3.53;;;;;;;;;;5001970;28;20018;-73
2022/05/27 12:48:26;;;;;;;15.98;3.20;;;;;;;;;;4958348;28;20113;-75
2022/05/27 12:51:00;;;;;;;15.82;3.25;;;;;;;;;;4995486;28;20037;-72
2022/05/27 12:53:36;;;;;;;18.97;3.60;;;;;;;;;;5000704;28;20476;-71
2022/05/27 13:02:15;;;;;;;19.38;3.47;;;;;;;;;;4995676;28;20534;-71
2022/05/27 13:04:50;;;;;;;21.15;4.45;;;;;;;;;;4995234;28;20030;-73
2022/05/27 13:07:16;;;;;;;28.23;4.25;;;;;;;;;;4995514;28;20034;-72
2022/05/27 13:09:44;;;;;;;25.80;4.07;;;;;;;;;;4996745;28;20028;-74
2022/05/27 13:12:11;;;;;;;22.27;3.20;;;;;;;;;;4995274;28;20407;-72
2022/05/27 13:14:55;;;;;;;19.67;4.05;;;;;;;;;;4995450;28;20057;-72
2022/05/27 13:17:30;;;;;;;26.20;4.40;;;;;;;;;;4994860;28;20030;-71
2022/05/27 13:20:04;;;;;;;25.77;3.95;;;;;;;;;;4994072;28;20031;-73
2022/05/27 13:22:35;;;;;;;19.80;3.25;;;;;;;;;;4995150;28;20026;-75
2022/05/27 13:25:21;;;;;;;25.00;3.60;;;;;;;;;;4994430;28;20045;-76
2022/05/27 13:27:48;;;;;;;12.98;3.65;;;;;;;;;;4994935;28;20031;-71
2022/05/27 13:30:15;;;;;;;24.98;3.63;;;;;;;;;;4994767;28;20392;-72
2022/05/27 13:32:51;;;;;;;21.30;7.60;;;;;;;;;;4996462;28;20037;-75
2022/05/27 13:35:18;;;;;;;21.70;4.00;;;;;;;;;;4997974;28;20058;-76
2022/05/27 13:37:50;;;;;;;25.90;3.47;;;;;;;;;;4998620;28;20031;-75
2022/05/27 13:40:20;;;;;;;19.00;4.10;;;;;;;;;;4998074;28;20054;-75
2022/05/27 13:42:47;;;;;;;33.35;4.97;;;;;;;;;;4996970;28;20033;-73
2022/05/27 13:45:16;;;;;;;24.42;3.92;;;;;;;;;;4994007;28;20030;-73
2022/05/27 13:47:47;;;;;;;25.60;4.45;;;;;;;;;;4994161;28;20479;-74
2022/05/27 13:50:26;;;;;;;21.17;3.08;;;;;;;;;;4994477;28;20503;-75
2022/05/27 13:52:52;;;;;;;24.42;4.18;;;;;;;;;;4994824;28;20443;-75
2022/05/27 13:55:24;;;;;;;26.50;3.95;;;;;;;;;;4993721;28;20026;-73
2022/05/27 13:57:50;;;;;;;24.33;3.15;;;;;;;;;;4994414;28;20101;-77
2022/05/27 14:00:20;;;;;;;24.17;3.80;;;;;;;;;;4994471;28;20022;-76
2022/05/27 14:02:48;;;;;;;21.83;3.65;;;;;;;;;;4994508;28;20034;-76
2022/05/27 14:05:32;;;;;;;33.00;4.80;;;;;;;;;;4994140;28;20027;-72
2022/05/27 14:08:00;;;;;;;28.98;3.97;;;;;;;;;;4971471;28;20468;-75
2022/05/27 14:10:26;;;;;;;27.15;8.57;;;;;;;;;;4975230;28;20109;-74
2022/05/27 14:12:53;;;;;;;27.08;5.68;;;;;;;;;;4979261;28;20066;-73
2022/05/27 14:15:19;;;;;;;22.38;4.70;;;;;;;;;;4973789;28;20027;-74
2022/05/27 14:17:47;;;;;;;26.92;5.10;;;;;;;;;;4974513;28;20551;-74
2022/05/27 14:22:39;;;;;;;29.27;4.50;;;;;;;;;;4956507;28;20031;-74
2022/05/27 14:23:20;;;;;;;26.70;4.55;;;;;;;;;;4974288;28;20400;-74
2022/05/27 14:25:46;;;;;;;27.38;4.30;;;;;;;;;;4973652;28;20081;-74
2022/05/27 14:28:23;;;;;;;25.92;3.95;;;;;;;;;;4974289;28;20435;-73
2022/05/27 14:30:51;;;;;;;20.40;3.58;;;;;;;;;;4974430;28;20033;-72
2022/05/27 14:33:23;;;;;;;29.33;4.28;;;;;;;;;;5015312;23;20080;-76
2022/05/27 14:35:49;;;;;;;27.60;4.75;;;;;;;;;;5001050;28;20083;-76
2022/05/27 14:38:17;;;;;;;34.00;4.32;;;;;;;;;;5012781;28;20394;-77
2022/05/27 14:40:45;;;;;;;33.20;5.70;;;;;;;;;;4997339;28;20363;-77
2022/05/27 14:43:32;;;;;;;28.60;4.88;;;;;;;;;;5014159;28;20480;-75
2022/05/27 14:46:00;;;;;;;26.10;4.28;;;;;;;;;;5000502;28;20638;-76
2022/05/27 14:48:35;;;;;;;39.75;8.82;;;;;;;;;;5015065;28;20080;-75
2022/05/27 14:51:01;;;;;;;;;;;;;;;;;;5022807;28;20422;-78
2022/05/27 14:53:27;;;;;;;19.02;3.60;;;;;;;;;;5002695;28;19912;-77
2022/05/27 14:55:58;;;;;;;26.60;4.72;;;;;;;;;;5019299;28;20033;-80
2022/05/27 14:58:29;;;;;;;20.95;3.70;;;;;;;;;;5019302;28;20018;-80
2022/05/27 15:00:55;;;;;;;21.05;3.90;;;;;;;;;;5002224;28;20025;-78
2022/05/27 15:03:29;;;;;;;23.05;4.60;;;;;;;;;;5017868;28;20379;-77
2022/05/27 15:06:07;;;;;;;21.45;4.70;;;;;;;;;;5018336;28;20033;-78
2022/05/27 15:08:34;;;;;;;25.33;4.85;;;;;;;;;;5020031;28;20456;-77
2022/05/27 15:11:21;;;;;;;24.45;4.45;;;;;;;;;;5002268;28;20033;-77
2022/05/27 15:13:51;;;;;;;20.92;4.20;;;;;;;;;;5019212;28;20032;-77
2022/05/27 15:16:26;;;;;;;35.20;4.80;;;;;;;;;;5000143;28;20045;-78
2022/05/27 15:18:52;;;;;;;;;;;;;;;;;;5018474;28;20514;-76
2022/05/27 15:21:21;;;;;;;28.83;4.35;;;;;;;;;;5001149;28;19905;-81
2022/05/27 15:23:55;;;;;;;32.60;4.70;;;;;;;;;;5002126;28;20479;-79
2022/05/27 15:34:44;;;;;;;25.27;4.40;;;;;;;;;;5026806;28;20121;-77